createdAt,value
2022-11-18T00:00:05.064Z,3.30
2022-11-18T00:03:06.861Z,6.33
2022-11-18T00:06:12.264Z,4.43
2022-11-18T00:09:13.708Z,4.43
2022-11-18T00:12:33.780Z,3.37
2022-11-18T00:15:35.180Z,3.60
2022-11-18T00:18:37.276Z,3.67
2022-11-18T00:21:38.682Z,3.90
2022-11-18T00:24:40.102Z,3.10
2022-11-18T00:27:41.485Z,3.00
2022-11-18T00:30:42.892Z,3.87
2022-11-18T00:33:44.305Z,3.93
2022-11-18T00:36:47.090Z,2.57
2022-11-18T00:39:48.487Z,2.90
2022-11-18T00:42:53.588Z,2.50
2022-11-18T00:45:55.077Z,4.50
2022-11-18T00:48:56.465Z,2.97
2022-11-18T00:52:01.198Z,3.07
2022-11-18T00:55:02.620Z,4.90
2022-11-18T00:58:04.016Z,6.40
2022-11-18T01:01:05.971Z,5.33
2022-11-18T01:04:07.484Z,2.60
2022-11-18T01:07:08.986Z,7.47
2022-11-18T01:10:10.505Z,4.80
2022-11-18T01:13:21.129Z,4.30
2022-11-18T01:16:25.150Z,3.47
2022-11-18T01:19:27.065Z,4.73
2022-11-18T01:22:28.477Z,2.67
2022-11-18T01:25:30.330Z,4.63
2022-11-18T01:28:32.244Z,3.13
2022-11-18T01:31:33.640Z,2.67
2022-11-18T01:34:35.267Z,4.83
2022-11-18T01:37:37.221Z,5.20
2022-11-18T01:40:39.165Z,4.67
2022-11-18T01:44:28.192Z,4.63
2022-11-18T01:47:40.236Z,2.63
2022-11-18T01:50:49.421Z,3.60
2022-11-18T01:54:02.328Z,3.23
2022-11-18T01:57:08.304Z,4.37
2022-11-18T02:00:10.562Z,5.10
2022-11-18T02:03:12.186Z,2.60
2022-11-18T02:06:13.847Z,2.83
2022-11-18T02:09:16.829Z,2.33
2022-11-18T02:12:19.368Z,1.83
2022-11-18T02:15:32.593Z,3.60
2022-11-18T02:18:43.535Z,4.03
2022-11-18T02:22:09.496Z,4.03
2022-11-18T02:25:54.142Z,3.00
2022-11-18T02:29:08.515Z,4.57
2022-11-18T02:32:17.249Z,5.20
2022-11-18T02:35:21.359Z,5.23
2022-11-18T02:38:34.740Z,2.60
2022-11-18T02:41:39.435Z,4.63
2022-11-18T02:44:46.019Z,2.53
2022-11-18T02:47:49.468Z,9.23
2022-11-18T02:50:52.644Z,3.47
2022-11-18T02:53:59.477Z,2.57
2022-11-18T02:57:02.895Z,3.37
2022-11-18T03:00:04.892Z,3.87
2022-11-18T03:03:27.234Z,4.60
2022-11-18T03:06:41.218Z,7.17
2022-11-18T03:09:45.695Z,2.63
2022-11-18T03:13:08.024Z,4.33
2022-11-18T03:16:17.120Z,4.30
2022-11-18T03:19:35.573Z,3.30
2022-11-18T03:22:47.628Z,3.40
2022-11-18T03:26:03.531Z,2.07
2022-11-18T03:29:10.321Z,5.40
2022-11-18T03:32:28.449Z,2.33
2022-11-18T03:35:33.651Z,4.97
2022-11-18T03:38:41.145Z,3.40
2022-11-18T03:42:02.445Z,1.90
2022-11-18T03:45:10.735Z,4.33
2022-11-18T03:48:22.428Z,3.33
2022-11-18T03:51:30.127Z,2.13
2022-11-18T03:54:33.924Z,1.93
2022-11-18T03:57:54.045Z,1.90
2022-11-18T04:01:01.716Z,2.67
2022-11-18T04:04:03.431Z,2.43
2022-11-18T04:07:04.826Z,4.23
2022-11-18T04:10:35.600Z,0.70
2022-11-18T04:13:37.832Z,1.63
2022-11-18T04:16:43.437Z,2.23
2022-11-18T04:19:44.864Z,2.83
2022-11-18T04:22:46.416Z,1.90
2022-11-18T04:25:47.829Z,2.03
2022-11-18T04:28:49.214Z,0.80
2022-11-18T04:31:50.918Z,2.23
2022-11-18T04:34:52.324Z,0.80
2022-11-18T04:37:54.191Z,0.77
2022-11-18T04:40:55.572Z,2.80
2022-11-18T04:43:56.952Z,2.43
2022-11-18T04:47:00.745Z,1.37
2022-11-18T04:50:02.128Z,0.90
2022-11-18T04:53:03.524Z,1.63
2022-11-18T04:56:06.769Z,0.87
2022-11-18T04:59:09.746Z,1.33
2022-11-18T05:02:11.242Z,2.27
2022-11-18T05:05:12.687Z,2.43
2022-11-18T05:08:14.084Z,1.20
2022-11-18T05:11:34.559Z,3.37
2022-11-18T05:14:36.071Z,2.40
2022-11-18T05:17:37.504Z,2.00
2022-11-18T05:20:41.784Z,0.93
2022-11-18T05:23:43.485Z,1.13
2022-11-18T05:26:45.293Z,1.00
2022-11-18T05:29:46.697Z,1.90
2022-11-18T05:32:48.092Z,2.37
2022-11-18T05:35:53.929Z,2.97
2022-11-18T05:38:59.473Z,1.90
2022-11-18T05:42:19.880Z,0.70
2022-11-18T05:45:21.363Z,1.10
2022-11-18T05:48:23.089Z,3.87
2022-11-18T05:51:24.505Z,1.37
2022-11-18T05:54:26.486Z,0.77
2022-11-18T05:57:27.860Z,1.40
2022-11-18T06:00:30.752Z,2.27
2022-11-18T06:03:36.565Z,3.10
2022-11-18T06:06:38.262Z,1.57
2022-11-18T06:09:44.717Z,2.17
2022-11-18T06:12:49.698Z,0.70
2022-11-18T06:15:51.305Z,0.73
2022-11-18T06:18:52.992Z,0.73
2022-11-18T06:21:54.680Z,2.57
2022-11-18T06:24:56.103Z,0.83
2022-11-18T06:28:00.503Z,0.50
2022-11-18T06:31:02.177Z,1.67
2022-11-18T06:34:03.580Z,1.57
2022-11-18T06:37:15.296Z,0.70
2022-11-18T06:40:17.092Z,0.77
2022-11-18T06:43:37.126Z,1.70
2022-11-18T06:46:56.598Z,1.00
2022-11-18T06:49:58.052Z,3.07
2022-11-18T06:53:01.315Z,1.53
2022-11-18T06:56:10.868Z,1.63
2022-11-18T06:59:12.876Z,1.93
2022-11-18T07:02:14.332Z,2.53
2022-11-18T07:05:15.811Z,5.87
2022-11-18T07:08:17.197Z,2.63
2022-11-18T07:11:22.004Z,1.57
2022-11-18T07:14:23.635Z,1.90
2022-11-18T07:17:25.549Z,1.70
2022-11-18T07:20:27.166Z,3.07
2022-11-18T07:23:30.016Z,1.50
2022-11-18T07:26:31.481Z,1.37
2022-11-18T07:29:32.866Z,1.83
2022-11-18T07:32:34.365Z,1.40
2022-11-18T07:35:35.755Z,0.70
2022-11-18T07:38:37.394Z,2.47
2022-11-18T07:41:40.120Z,1.67
2022-11-18T07:44:41.500Z,4.60
2022-11-18T07:47:42.912Z,0.83
2022-11-18T07:50:47.219Z,1.60
2022-11-18T07:53:48.888Z,2.90
2022-11-18T07:56:50.267Z,1.20
2022-11-18T07:59:51.649Z,1.37
2022-11-18T08:02:53.016Z,1.47
2022-11-18T08:06:04.747Z,1.23
2022-11-18T08:09:07.037Z,1.37
2022-11-18T08:12:08.634Z,0.77
2022-11-18T08:15:10.460Z,3.63
2022-11-18T08:18:13.880Z,2.47
2022-11-18T08:21:18.273Z,2.07
2022-11-18T08:24:19.656Z,1.90
2022-11-18T08:27:21.264Z,2.17
2022-11-18T08:30:22.722Z,4.30
2022-11-18T08:33:24.280Z,1.97
2022-11-18T08:36:28.155Z,2.00
2022-11-18T08:39:29.546Z,2.30
2022-11-18T08:42:34.277Z,2.63
2022-11-18T08:45:37.925Z,1.03
2022-11-18T08:48:39.580Z,2.27
2022-11-18T08:51:41.139Z,0.93
2022-11-18T08:54:42.537Z,0.97
2022-11-18T08:57:43.963Z,2.07
2022-11-18T09:00:45.344Z,1.10
2022-11-18T09:03:47.244Z,2.20
2022-11-18T09:06:48.645Z,2.50
2022-11-18T09:09:50.248Z,1.47
2022-11-18T09:12:51.685Z,1.53
2022-11-18T09:15:53.146Z,1.20
2022-11-18T09:18:56.254Z,1.77
2022-11-18T09:21:57.715Z,1.20
2022-11-18T09:24:59.091Z,1.70
2022-11-18T09:28:00.475Z,1.33
2022-11-18T09:31:07.896Z,2.23
2022-11-18T09:34:10.271Z,1.43
2022-11-18T09:37:11.714Z,1.50
2022-11-18T09:40:18.194Z,2.17
2022-11-18T09:43:44.460Z,2.97
2022-11-18T09:47:02.935Z,1.20
2022-11-18T09:50:41.548Z,2.73
2022-11-18T09:53:35.241Z,1.00
2022-11-18T09:56:36.707Z,2.10
2022-11-18T09:59:38.280Z,1.63
2022-11-18T10:03:04.732Z,3.40
2022-11-18T10:06:09.727Z,1.57
2022-11-18T10:09:51.901Z,1.77
2022-11-18T10:13:05.742Z,1.90
2022-11-18T10:16:23.804Z,1.53
2022-11-18T10:19:42.856Z,3.23
2022-11-18T10:22:52.398Z,1.70
2022-11-18T10:25:54.569Z,1.80
2022-11-18T10:28:56.042Z,2.83
2022-11-18T10:32:07.593Z,3.17
2022-11-18T10:35:25.233Z,1.23
2022-11-18T10:38:26.684Z,1.63
2022-11-18T10:41:28.201Z,1.40
2022-11-18T10:44:43.449Z,2.00
2022-11-18T10:47:56.733Z,2.80
2022-11-18T10:50:58.204Z,3.73
2022-11-18T10:54:13.388Z,1.33
2022-11-18T10:57:25.152Z,1.67
2022-11-18T11:00:43.408Z,2.10
2022-11-18T11:04:16.037Z,2.07
2022-11-18T11:07:33.035Z,1.50
2022-11-18T11:10:34.713Z,1.60
2022-11-18T11:13:43.146Z,2.33
2022-11-18T11:16:58.461Z,2.77
2022-11-18T11:20:18.267Z,3.33
2022-11-18T11:23:23.726Z,1.37
2022-11-18T11:30:12.829Z,2.10
2022-11-18T11:33:38.512Z,1.70
2022-11-18T11:36:45.723Z,4.23
2022-11-18T11:39:59.245Z,3.70
2022-11-18T11:43:24.551Z,1.93
2022-11-18T11:47:12.706Z,1.80
2022-11-18T11:50:29.966Z,1.40
2022-11-18T11:53:56.617Z,2.23
2022-11-18T11:57:09.871Z,2.47
2022-11-18T12:00:16.334Z,2.20
2022-11-18T12:03:48.771Z,2.20
2022-11-18T12:06:54.903Z,1.30
2022-11-18T12:10:02.271Z,1.20
2022-11-18T12:13:08.808Z,2.63
2022-11-18T12:16:36.457Z,2.30
2022-11-18T12:19:39.573Z,2.20
2022-11-18T12:23:09.064Z,1.13
2022-11-18T12:26:11.341Z,2.27
2022-11-18T12:29:23.549Z,2.30
2022-11-18T12:32:46.493Z,1.67
2022-11-18T12:35:50.966Z,2.40
2022-11-18T12:38:53.515Z,1.73
2022-11-18T12:42:21.966Z,2.57
2022-11-18T12:45:48.775Z,2.83
2022-11-18T12:48:50.196Z,1.77
2022-11-18T12:51:56.455Z,1.50
2022-11-18T12:55:01.075Z,5.30
2022-11-18T12:58:02.517Z,3.50
2022-11-18T13:01:10.591Z,2.93
2022-11-18T13:04:16.621Z,1.60
2022-11-18T13:07:37.925Z,1.60
2022-11-18T13:10:50.388Z,1.47
2022-11-18T13:14:15.195Z,2.93
2022-11-18T13:17:50.479Z,1.40
2022-11-18T13:20:57.594Z,3.57
2022-11-18T13:24:02.065Z,3.33
2022-11-18T13:27:04.897Z,1.90
2022-11-18T13:30:11.388Z,2.17
2022-11-18T13:33:12.972Z,3.47
2022-11-18T13:36:23.676Z,5.50
2022-11-18T13:39:31.017Z,4.77
2022-11-18T13:42:32.574Z,1.27
2022-11-18T13:45:34.712Z,1.63
2022-11-18T13:48:41.418Z,3.03
2022-11-18T13:51:43.097Z,2.30
2022-11-18T13:54:45.727Z,4.23
2022-11-18T13:57:50.589Z,5.30
2022-11-18T14:00:57.836Z,2.27
2022-11-18T14:04:03.255Z,2.43
2022-11-18T14:07:28.910Z,2.37
2022-11-18T14:10:42.647Z,2.80
2022-11-18T14:13:51.448Z,1.90
2022-11-18T14:16:52.856Z,1.93
2022-11-18T14:19:59.028Z,1.73
2022-11-18T14:23:03.202Z,3.37
2022-11-18T14:26:06.971Z,4.23
2022-11-18T14:29:21.329Z,4.87
2022-11-18T14:32:23.408Z,2.90
2022-11-18T14:35:24.816Z,3.90
2022-11-18T14:41:58.269Z,5.03
2022-11-18T14:44:59.655Z,3.70
2022-11-18T14:48:01.581Z,4.63
2022-11-18T14:51:03.173Z,4.30
2022-11-18T14:54:04.664Z,3.37
2022-11-18T14:57:06.304Z,3.67
2022-11-18T15:00:14.116Z,3.40
2022-11-18T15:03:16.284Z,5.17
2022-11-18T15:06:20.296Z,4.50
2022-11-18T15:09:21.768Z,5.70
2022-11-18T15:12:23.179Z,2.70
2022-11-18T15:15:24.980Z,6.50
2022-11-18T15:18:26.478Z,4.37
2022-11-18T15:21:28.708Z,3.73
2022-11-18T15:24:30.101Z,3.90
2022-11-18T15:27:31.604Z,3.27
2022-11-18T15:30:33.080Z,5.47
2022-11-18T15:33:34.544Z,4.47
2022-11-18T15:36:36.327Z,2.30
2022-11-18T15:39:37.837Z,4.47
2022-11-18T15:42:47.494Z,2.80
2022-11-18T15:45:59.608Z,6.10
2022-11-18T15:49:01.331Z,2.93
2022-11-18T15:52:03.084Z,5.77
2022-11-18T15:55:08.094Z,4.63
2022-11-18T15:58:09.848Z,3.80
2022-11-18T16:01:12.008Z,4.47
2022-11-18T16:04:15.961Z,4.73
2022-11-18T16:07:17.586Z,5.77
2022-11-18T16:10:38.028Z,4.67
2022-11-18T16:13:39.516Z,4.87
2022-11-18T16:16:42.565Z,6.13
2022-11-18T16:19:43.954Z,3.43
2022-11-18T16:22:45.444Z,5.17
2022-11-18T16:25:46.926Z,4.00
2022-11-18T16:28:48.879Z,3.03
2022-11-18T16:31:52.045Z,5.93
2022-11-18T16:34:58.058Z,4.80
2022-11-18T16:38:02.562Z,5.00
2022-11-18T16:41:23.991Z,4.30
2022-11-18T16:44:25.519Z,4.27
2022-11-18T16:47:26.986Z,6.33
2022-11-18T16:50:28.416Z,5.03
2022-11-18T16:53:29.819Z,5.30
2022-11-18T16:56:33.915Z,4.00
2022-11-18T16:59:36.640Z,3.40
2022-11-18T17:02:38.078Z,7.80
2022-11-18T17:05:40.585Z,4.97
2022-11-18T17:08:42.072Z,10.13
2022-11-18T17:11:43.554Z,5.13
2022-11-18T17:14:44.972Z,3.17
2022-11-18T17:17:46.344Z,4.53
2022-11-18T17:20:47.788Z,4.97
2022-11-18T17:23:50.013Z,4.20
2022-11-18T17:26:52.535Z,3.77
2022-11-18T17:29:55.889Z,3.83
2022-11-18T17:32:58.095Z,4.80
2022-11-18T17:36:01.339Z,5.20
2022-11-18T17:39:02.807Z,7.70
2022-11-18T17:42:30.643Z,6.70
2022-11-18T17:45:32.044Z,4.63
2022-11-18T17:48:33.636Z,6.83
2022-11-18T17:51:35.057Z,4.57
2022-11-18T17:54:36.597Z,6.63
2022-11-18T17:57:38.005Z,4.37
2022-11-18T18:00:40.242Z,4.90
2022-11-18T18:03:43.490Z,9.53
2022-11-18T18:06:45.049Z,14.33
2022-11-18T18:09:46.484Z,15.90
2022-11-18T18:13:07.063Z,19.20
2022-11-18T18:16:08.475Z,18.53
2022-11-18T18:19:11.536Z,13.20
2022-11-18T18:22:12.924Z,8.47
2022-11-18T18:25:14.621Z,9.47
2022-11-18T18:28:16.009Z,6.97
2022-11-18T18:31:18.081Z,8.60
2022-11-18T18:34:19.634Z,6.10
2022-11-18T18:37:21.164Z,6.60
2022-11-18T18:40:22.784Z,6.57
2022-11-18T18:43:24.180Z,5.17
2022-11-18T18:46:31.782Z,9.67
2022-11-18T18:49:33.217Z,5.13
2022-11-18T18:52:34.628Z,5.77
2022-11-18T18:55:39.305Z,5.37
2022-11-18T18:58:44.927Z,7.10
2022-11-18T19:01:46.503Z,5.90
2022-11-18T19:04:47.983Z,5.27
2022-11-18T19:07:49.436Z,4.90
2022-11-18T19:10:50.863Z,6.67
2022-11-18T19:13:52.335Z,7.67
2022-11-18T19:16:54.629Z,6.13
2022-11-18T19:20:15.046Z,6.63
2022-11-18T19:23:17.972Z,6.27
2022-11-18T19:26:20.152Z,4.67
2022-11-18T19:32:43.151Z,7.83
2022-11-18T19:35:44.596Z,4.00
2022-11-18T19:38:49.360Z,3.67
2022-11-18T19:41:50.793Z,6.90
2022-11-18T19:44:52.269Z,5.13
2022-11-18T19:47:53.693Z,4.90
2022-11-18T19:51:12.483Z,6.40
2022-11-18T19:54:13.942Z,4.87
2022-11-18T19:57:15.444Z,6.30
2022-11-18T20:00:17.474Z,5.60
2022-11-18T20:03:18.998Z,4.93
2022-11-18T20:06:21.949Z,4.30
2022-11-18T20:09:25.236Z,5.93
2022-11-18T20:12:28.415Z,5.73
2022-11-18T20:15:29.798Z,7.10
2022-11-18T20:18:31.671Z,5.47
2022-11-18T20:21:34.079Z,4.67
2022-11-18T20:24:35.526Z,6.57
2022-11-18T20:27:37.007Z,6.03
2022-11-18T20:30:39.424Z,5.83
2022-11-18T20:33:43.916Z,6.33
2022-11-18T20:36:46.502Z,6.73
2022-11-18T20:39:47.928Z,6.13
2022-11-18T20:43:07.874Z,5.67
2022-11-18T20:46:10.365Z,9.17
2022-11-18T20:49:11.746Z,5.00
2022-11-18T20:52:13.139Z,5.87
2022-11-18T20:55:15.769Z,4.83
2022-11-18T20:58:18.550Z,7.23
2022-11-18T21:01:25.599Z,4.40
2022-11-18T21:04:27.048Z,5.00
2022-11-18T21:07:28.749Z,5.77
2022-11-18T21:10:33.296Z,5.13
2022-11-18T21:13:54.319Z,3.13
2022-11-18T21:17:00.262Z,3.90
2022-11-18T21:20:21.645Z,4.80
2022-11-18T21:23:23.420Z,5.43
2022-11-18T21:26:26.572Z,6.00
2022-11-18T21:29:30.559Z,5.40
2022-11-18T21:32:32.081Z,4.07
2022-11-18T21:35:34.332Z,4.53
2022-11-18T21:38:35.760Z,6.03
2022-11-18T21:41:38.130Z,5.60
2022-11-18T21:44:39.739Z,4.73
2022-11-18T21:47:41.147Z,4.90
2022-11-18T21:50:42.526Z,5.60
2022-11-18T21:53:44.380Z,5.97
2022-11-18T21:56:45.841Z,5.37
2022-11-18T21:59:47.230Z,9.40
2022-11-18T22:02:48.679Z,4.50
2022-11-18T22:05:54.568Z,4.23
2022-11-18T22:08:56.431Z,6.13
2022-11-18T22:11:58.085Z,4.37
2022-11-18T22:14:59.634Z,4.17
2022-11-18T22:18:01.031Z,5.97
2022-11-18T22:21:05.119Z,4.37
2022-11-18T22:24:07.172Z,4.23
2022-11-18T22:27:11.504Z,2.67
2022-11-18T22:30:13.248Z,3.37
2022-11-18T22:33:14.836Z,6.40
2022-11-18T22:36:17.903Z,5.10
2022-11-18T22:39:19.646Z,4.23
2022-11-18T22:42:39.800Z,7.37
2022-11-18T22:45:41.186Z,3.53
2022-11-18T22:48:42.573Z,2.73
2022-11-18T22:51:43.998Z,6.40
2022-11-18T22:54:45.393Z,6.87
2022-11-18T22:57:46.859Z,3.90
2022-11-18T23:00:48.262Z,6.10
2022-11-18T23:03:52.955Z,3.27
2022-11-18T23:06:54.468Z,4.70
2022-11-18T23:09:55.907Z,3.03
2022-11-18T23:13:15.794Z,3.77
2022-11-18T23:16:17.539Z,5.17
2022-11-18T23:19:19.448Z,7.00
2022-11-18T23:22:21.089Z,2.80
2022-11-18T23:25:22.666Z,7.20
2022-11-18T23:28:24.079Z,5.00
2022-11-18T23:31:27.460Z,5.77
2022-11-18T23:34:28.848Z,4.83
2022-11-18T23:37:30.308Z,3.70
2022-11-18T23:40:31.737Z,4.93
2022-11-18T23:43:34.660Z,4.73
2022-11-18T23:46:36.050Z,4.97
2022-11-18T23:49:37.440Z,3.80
2022-11-18T23:52:41.735Z,3.13
2022-11-18T23:55:43.127Z,3.63
2022-11-18T23:58:47.198Z,4.60
